Главная страница
METAR-TAF:

METAR-TAF

Аэропорты :

Фор-де-Франс, Мартиника

широта: 14-36N, долгота: 061-00W, высота над уровнем моря: 5 м

Текущие метеонаблюдения

Эта сводка был подготовлена 23 минут назад, в 23:00 UTC
Ветер 4 Узел от восточно-северо-восточный
Температура 24°C
Влажность 78%
Давление 1016 hPa
Видимость 10 км и более
Нет облачности ниже 1500 м, и нет кучево-дождевой облачности

METAR: TFFF 182300Z AUTO 07004KT CAVOK 24/20 Q1016

Время: 19:23 (23:23 UTC)

Прогноз

Эта сводка был подготовлена 6 часа и 23 минут назад, в 17:00 UTC
Прогноз действительный с 18-го 18 UTC до 19-го 18 UTC
Ветер 14 Узел от восточно-юго-восточный
Видимость 10 км и более
Отдельные облака на высоте 3000 фута
Вероятность 40% :
временами
С 19-го 03 UTC до 19-го 18 UTC
Видимость: 4000 м
Отдельные облака на высоте 1800 фута, мощно-кучевые.
ливневые дожди

TAF: TFFF 181700Z 1818/1918 12014KT 9999 SCT030 PROB40 TEMPO 1903/1918 4000 SHRA SCT018TCU

Метеонаблюдения и прогнозы для более 4000 аэропортов (сводки METAR и TAF).

Имеющиеся станции представлены на карте желтыми и красными точками.

Чтобы увидеть название станции, наведите на нее мышь.

Затем щелкните, чтобы увидеть метеонаблюдения и метеопрогнозы.

Управление картой: чтобы увеличить масштаб, щелкните зеленые кнопки с черным крестиком; чтобы уменьшить масштаб, щелкните зеленую кнопку с тире; для просмотра соседних карт щелкайте зеленые стрелки.


METAR-TAF: